sensor_id;sensor_type;location;lat;lon;timestamp;temperature;humidity
52799;DHT22;38667;42.872;74.622;2023-04-03T00:00:24;4.50;48.70
52799;DHT22;38667;42.872;74.622;2023-04-03T00:02:50;4.50;48.50
52799;DHT22;38667;42.872;74.622;2023-04-03T00:05:16;4.50;49.10
52799;DHT22;38667;42.872;74.622;2023-04-03T00:07:43;4.40;47.50
52799;DHT22;38667;42.872;74.622;2023-04-03T00:10:12;4.30;47.00
52799;DHT22;38667;42.872;74.622;2023-04-03T00:12:38;4.30;48.50
52799;DHT22;38667;42.872;74.622;2023-04-03T00:15:06;4.30;49.70
52799;DHT22;38667;42.872;74.622;2023-04-03T00:17:32;4.40;50.10
52799;DHT22;38667;42.872;74.622;2023-04-03T00:19:58;4.40;47.40
52799;DHT22;38667;42.872;74.622;2023-04-03T00:22:25;4.40;47.10
52799;DHT22;38667;42.872;74.622;2023-04-03T00:24:51;4.50;48.10
52799;DHT22;38667;42.872;74.622;2023-04-03T00:27:19;4.50;48.10
52799;DHT22;38667;42.872;74.622;2023-04-03T00:29:45;4.60;48.70
52799;DHT22;38667;42.872;74.622;2023-04-03T00:32:11;4.60;48.90
52799;DHT22;38667;42.872;74.622;2023-04-03T00:34:38;4.60;50.10
52799;DHT22;38667;42.872;74.622;2023-04-03T00:37:04;4.50;50.80
52799;DHT22;38667;42.872;74.622;2023-04-03T00:39:30;4.50;49.90
52799;DHT22;38667;42.872;74.622;2023-04-03T00:41:57;4.40;47.70
52799;DHT22;38667;42.872;74.622;2023-04-03T00:47:25;4.50;46.90
52799;DHT22;38667;42.872;74.622;2023-04-03T00:49:52;4.50;46.70
52799;DHT22;38667;42.872;74.622;2023-04-03T00:52:22;4.60;46.00
52799;DHT22;38667;42.872;74.622;2023-04-03T00:54:50;4.70;46.20
52799;DHT22;38667;42.872;74.622;2023-04-03T00:57:18;4.80;46.80
52799;DHT22;38667;42.872;74.622;2023-04-03T00:59:48;4.90;47.10
52799;DHT22;38667;42.872;74.622;2023-04-03T01:02:15;5.00;45.80
52799;DHT22;38667;42.872;74.622;2023-04-03T01:04:44;5.20;43.30
52799;DHT22;38667;42.872;74.622;2023-04-03T01:07:12;5.30;45.80
52799;DHT22;38667;42.872;74.622;2023-04-03T01:09:40;5.40;43.60
52799;DHT22;38667;42.872;74.622;2023-04-03T01:12:15;5.60;43.00
52799;DHT22;38667;42.872;74.622;2023-04-03T01:14:41;5.70;44.00
52799;DHT22;38667;42.872;74.622;2023-04-03T01:17:27;5.80;43.30
52799;DHT22;38667;42.872;74.622;2023-04-03T01:20:04;6.00;43.10
52799;DHT22;38667;42.872;74.622;2023-04-03T01:22:44;6.20;45.30
52799;DHT22;38667;42.872;74.622;2023-04-03T01:25:14;6.40;39.10
52799;DHT22;38667;42.872;74.622;2023-04-03T01:27:40;6.40;40.50
52799;DHT22;38667;42.872;74.622;2023-04-03T01:30:08;6.30;39.20
52799;DHT22;38667;42.872;74.622;2023-04-03T01:32:36;6.20;39.20
52799;DHT22;38667;42.872;74.622;2023-04-03T01:35:02;6.10;39.90
52799;DHT22;38667;42.872;74.622;2023-04-03T01:37:29;6.00;38.80
52799;DHT22;38667;42.872;74.622;2023-04-03T01:39:55;6.00;39.00
52799;DHT22;38667;42.872;74.622;2023-04-03T01:42:21;5.80;40.50
52799;DHT22;38667;42.872;74.622;2023-04-03T01:44:47;5.70;40.80
52799;DHT22;38667;42.872;74.622;2023-04-03T01:47:14;5.60;40.10
52799;DHT22;38667;42.872;74.622;2023-04-03T01:49:42;5.60;42.00
52799;DHT22;38667;42.872;74.622;2023-04-03T01:52:08;5.60;41.80
52799;DHT22;38667;42.872;74.622;2023-04-03T01:54:34;5.70;41.70
52799;DHT22;38667;42.872;74.622;2023-04-03T01:57:01;5.80;42.50
52799;DHT22;38667;42.872;74.622;2023-04-03T01:59:27;6.00;38.90
52799;DHT22;38667;42.872;74.622;2023-04-03T02:02:21;6.10;35.90
52799;DHT22;38667;42.872;74.622;2023-04-03T02:04:49;6.40;37.90
52799;DHT22;38667;42.872;74.622;2023-04-03T02:07:40;6.40;39.10
52799;DHT22;38667;42.872;74.622;2023-04-03T02:10:07;6.50;38.80
52799;DHT22;38667;42.872;74.622;2023-04-03T02:12:33;6.60;38.70
52799;DHT22;38667;42.872;74.622;2023-04-03T02:15:00;6.70;39.10
52799;DHT22;38667;42.872;74.622;2023-04-03T02:17:26;6.80;39.10
52799;DHT22;38667;42.872;74.622;2023-04-03T02:19:52;6.80;38.80
52799;DHT22;38667;42.872;74.622;2023-04-03T02:22:19;6.90;37.10
52799;DHT22;38667;42.872;74.622;2023-04-03T02:24:46;7.00;36.80
52799;DHT22;38667;42.872;74.622;2023-04-03T02:27:13;7.10;37.80
52799;DHT22;38667;42.872;74.622;2023-04-03T02:29:39;7.30;38.20
52799;DHT22;38667;42.872;74.622;2023-04-03T02:32:06;7.50;38.30
52799;DHT22;38667;42.872;74.622;2023-04-03T02:34:32;7.60;36.30
52799;DHT22;38667;42.872;74.622;2023-04-03T02:36:59;7.80;36.50
52799;DHT22;38667;42.872;74.622;2023-04-03T02:39:25;8.00;36.20
52799;DHT22;38667;42.872;74.622;2023-04-03T02:41:53;8.10;35.90
52799;DHT22;38667;42.872;74.622;2023-04-03T02:44:19;8.30;35.50
52799;DHT22;38667;42.872;74.622;2023-04-03T02:46:45;8.50;35.20
52799;DHT22;38667;42.872;74.622;2023-04-03T02:49:12;8.70;35.30
52799;DHT22;38667;42.872;74.622;2023-04-03T02:51:38;8.90;35.50
52799;DHT22;38667;42.872;74.622;2023-04-03T02:54:04;9.10;34.30
52799;DHT22;38667;42.872;74.622;2023-04-03T02:56:31;9.30;33.60
52799;DHT22;38667;42.872;74.622;2023-04-03T02:58:59;9.50;33.90
52799;DHT22;38667;42.872;74.622;2023-04-03T03:01:25;9.70;34.20
52799;DHT22;38667;42.872;74.622;2023-04-03T03:03:52;10.00;33.70
52799;DHT22;38667;42.872;74.622;2023-04-03T03:06:18;10.30;33.30
52799;DHT22;38667;42.872;74.622;2023-04-03T03:08:44;10.50;33.30
52799;DHT22;38667;42.872;74.622;2023-04-03T03:11:11;10.80;32.50
52799;DHT22;38667;42.872;74.622;2023-04-03T03:13:37;11.00;32.30
52799;DHT22;38667;42.872;74.622;2023-04-03T03:16:06;11.20;32.10
52799;DHT22;38667;42.872;74.622;2023-04-03T03:18:33;11.30;32.70
52799;DHT22;38667;42.872;74.622;2023-04-03T03:21:00;11.50;32.30
52799;DHT22;38667;42.872;74.622;2023-04-03T03:23:29;11.70;32.90
52799;DHT22;38667;42.872;74.622;2023-04-03T03:25:56;11.80;32.30
52799;DHT22;38667;42.872;74.622;2023-04-03T03:28:22;12.00;32.60
52799;DHT22;38667;42.872;74.622;2023-04-03T03:30:48;12.30;30.90
52799;DHT22;38667;42.872;74.622;2023-04-03T03:33:16;12.50;31.70
52799;DHT22;38667;42.872;74.622;2023-04-03T03:35:43;12.70;31.50
52799;DHT22;38667;42.872;74.622;2023-04-03T03:38:09;12.90;30.80
52799;DHT22;38667;42.872;74.622;2023-04-03T03:40:35;13.10;31.10
52799;DHT22;38667;42.872;74.622;2023-04-03T03:43:02;13.30;30.20
52799;DHT22;38667;42.872;74.622;2023-04-03T03:45:28;13.60;29.70
52799;DHT22;38667;42.872;74.622;2023-04-03T03:47:55;14.00;24.00
52799;DHT22;38667;42.872;74.622;2023-04-03T03:50:23;14.30;26.20
52799;DHT22;38667;42.872;74.622;2023-04-03T03:52:49;14.50;23.70
52799;DHT22;38667;42.872;74.622;2023-04-03T03:55:15;14.90;20.00
52799;DHT22;38667;42.872;74.622;2023-04-03T03:57:42;15.20;20.00
52799;DHT22;38667;42.872;74.622;2023-04-03T04:00:09;15.40;20.00
52799;DHT22;38667;42.872;74.622;2023-04-03T04:02:35;15.60;20.00
52799;DHT22;38667;42.872;74.622;2023-04-03T04:05:02;15.80;19.70
52799;DHT22;38667;42.872;74.622;2023-04-03T04:07:30;16.00;18.40
52799;DHT22;38667;42.872;74.622;2023-04-03T04:09:56;16.20;17.40
52799;DHT22;38667;42.872;74.622;2023-04-03T04:12:23;16.40;17.30
52799;DHT22;38667;42.872;74.622;2023-04-03T04:14:49;16.50;17.70
52799;DHT22;38667;42.872;74.622;2023-04-03T04:17:15;16.60;17.20
52799;DHT22;38667;42.872;74.622;2023-04-03T04:19:42;16.70;17.70
52799;DHT22;38667;42.872;74.622;2023-04-03T04:22:08;16.90;19.30
52799;DHT22;38667;42.872;74.622;2023-04-03T04:24:36;17.10;19.70
52799;DHT22;38667;42.872;74.622;2023-04-03T04:27:02;17.30;18.50
52799;DHT22;38667;42.872;74.622;2023-04-03T04:29:29;17.40;18.80
52799;DHT22;38667;42.872;74.622;2023-04-03T04:31:55;17.60;18.90
52799;DHT22;38667;42.872;74.622;2023-04-03T04:34:21;17.70;17.40
52799;DHT22;38667;42.872;74.622;2023-04-03T04:36:47;17.80;17.30
52799;DHT22;38667;42.872;74.622;2023-04-03T04:39:14;17.90;17.70
52799;DHT22;38667;42.872;74.622;2023-04-03T04:41:42;18.00;17.40
52799;DHT22;38667;42.872;74.622;2023-04-03T04:44:08;18.10;18.90
52799;DHT22;38667;42.872;74.622;2023-04-03T04:46:34;18.20;19.70
52799;DHT22;38667;42.872;74.622;2023-04-03T04:49:01;18.20;20.20
52799;DHT22;38667;42.872;74.622;2023-04-03T04:51:27;18.30;19.30
52799;DHT22;38667;42.872;74.622;2023-04-03T04:53:53;18.40;19.00
52799;DHT22;38667;42.872;74.622;2023-04-03T04:56:20;18.50;19.10
52799;DHT22;38667;42.872;74.622;2023-04-03T04:58:47;18.60;18.60
52799;DHT22;38667;42.872;74.622;2023-04-03T05:01:14;18.70;19.40
52799;DHT22;38667;42.872;74.622;2023-04-03T05:03:40;18.70;19.80
52799;DHT22;38667;42.872;74.622;2023-04-03T05:06:07;18.90;18.40
52799;DHT22;38667;42.872;74.622;2023-04-03T05:08:33;19.00;19.50
52799;DHT22;38667;42.872;74.622;2023-04-03T05:10:59;19.20;18.00
52799;DHT22;38667;42.872;74.622;2023-04-03T05:13:26;19.30;17.30
52799;DHT22;38667;42.872;74.622;2023-04-03T05:15:54;19.40;17.30
52799;DHT22;38667;42.872;74.622;2023-04-03T05:18:20;19.60;18.10
52799;DHT22;38667;42.872;74.622;2023-04-03T05:20:48;19.70;16.50
52799;DHT22;38667;42.872;74.622;2023-04-03T05:23:15;20.00;14.60
52799;DHT22;38667;42.872;74.622;2023-04-03T05:25:41;20.10;14.40
52799;DHT22;38667;42.872;74.622;2023-04-03T05:28:07;20.30;14.40
52799;DHT22;38667;42.872;74.622;2023-04-03T05:30:34;20.50;13.00
52799;DHT22;38667;42.872;74.622;2023-04-03T05:33:02;20.50;13.90
52799;DHT22;38667;42.872;74.622;2023-04-03T05:35:28;20.70;14.60
52799;DHT22;38667;42.872;74.622;2023-04-03T05:37:54;20.90;14.80
52799;DHT22;38667;42.872;74.622;2023-04-03T05:40:21;21.10;13.00
52799;DHT22;38667;42.872;74.622;2023-04-03T05:42:47;21.10;12.70
52799;DHT22;38667;42.872;74.622;2023-04-03T05:45:13;21.20;11.80
52799;DHT22;38667;42.872;74.622;2023-04-03T05:47:40;21.30;13.10
52799;DHT22;38667;42.872;74.622;2023-04-03T05:50:08;21.50;12.70
52799;DHT22;38667;42.872;74.622;2023-04-03T05:52:36;21.80;13.60
52799;DHT22;38667;42.872;74.622;2023-04-03T05:55:04;22.20;12.90
52799;DHT22;38667;42.872;74.622;2023-04-03T05:57:30;23.10;13.60
52799;DHT22;38667;42.872;74.622;2023-04-03T05:59:57;24.00;13.10
52799;DHT22;38667;42.872;74.622;2023-04-03T06:02:24;24.30;11.00
52799;DHT22;38667;42.872;74.622;2023-04-03T06:04:51;24.60;12.10
52799;DHT22;38667;42.872;74.622;2023-04-03T06:07:20;24.90;12.40
52799;DHT22;38667;42.872;74.622;2023-04-03T06:09:47;25.10;9.70
52799;DHT22;38667;42.872;74.622;2023-04-03T06:12:13;25.40;10.80
52799;DHT22;38667;42.872;74.622;2023-04-03T06:14:40;25.70;11.40
52799;DHT22;38667;42.872;74.622;2023-04-03T06:17:06;26.00;11.40
52799;DHT22;38667;42.872;74.622;2023-04-03T06:19:33;26.10;10.00
52799;DHT22;38667;42.872;74.622;2023-04-03T06:21:59;26.20;11.90
52799;DHT22;38667;42.872;74.622;2023-04-03T06:24:27;26.60;10.80
52799;DHT22;38667;42.872;74.622;2023-04-03T06:26:54;26.90;11.50
52799;DHT22;38667;42.872;74.622;2023-04-03T06:29:21;26.80;10.10
52799;DHT22;38667;42.872;74.622;2023-04-03T06:31:47;26.60;11.40
52799;DHT22;38667;42.872;74.622;2023-04-03T06:34:14;26.40;11.40
52799;DHT22;38667;42.872;74.622;2023-04-03T06:36:40;26.00;10.90
52799;DHT22;38667;42.872;74.622;2023-04-03T06:39:08;25.70;11.40
52799;DHT22;38667;42.872;74.622;2023-04-03T06:41:36;25.50;11.10
52799;DHT22;38667;42.872;74.622;2023-04-03T06:44:02;25.30;10.90
52799;DHT22;38667;42.872;74.622;2023-04-03T06:46:28;25.20;12.50
52799;DHT22;38667;42.872;74.622;2023-04-03T06:48:55;25.30;13.70
52799;DHT22;38667;42.872;74.622;2023-04-03T06:51:23;25.40;11.80
52799;DHT22;38667;42.872;74.622;2023-04-03T06:53:51;25.50;12.60
52799;DHT22;38667;42.872;74.622;2023-04-03T06:56:18;25.50;12.30
52799;DHT22;38667;42.872;74.622;2023-04-03T06:58:46;25.60;11.80
52799;DHT22;38667;42.872;74.622;2023-04-03T07:01:14;26.00;12.50
52799;DHT22;38667;42.872;74.622;2023-04-03T07:03:41;27.00;13.40
52799;DHT22;38667;42.872;74.622;2023-04-03T07:06:09;27.80;11.80
52799;DHT22;38667;42.872;74.622;2023-04-03T07:08:37;27.90;11.10
52799;DHT22;38667;42.872;74.622;2023-04-03T07:11:04;27.90;10.30
52799;DHT22;38667;42.872;74.622;2023-04-03T07:13:30;27.60;10.60
52799;DHT22;38667;42.872;74.622;2023-04-03T07:15:58;27.60;11.20
52799;DHT22;38667;42.872;74.622;2023-04-03T07:18:25;27.70;10.60
52799;DHT22;38667;42.872;74.622;2023-04-03T07:20:51;27.90;11.00
52799;DHT22;38667;42.872;74.622;2023-04-03T07:23:18;28.20;11.10
52799;DHT22;38667;42.872;74.622;2023-04-03T07:25:45;27.90;11.50
52799;DHT22;38667;42.872;74.622;2023-04-03T07:28:11;28.10;11.80
52799;DHT22;38667;42.872;74.622;2023-04-03T07:30:43;28.60;10.40
52799;DHT22;38667;42.872;74.622;2023-04-03T07:33:11;29.00;9.90
52799;DHT22;38667;42.872;74.622;2023-04-03T07:35:38;29.10;10.70
52799;DHT22;38667;42.872;74.622;2023-04-03T07:38:04;28.70;10.90
52799;DHT22;38667;42.872;74.622;2023-04-03T07:40:30;28.70;11.00
52799;DHT22;38667;42.872;74.622;2023-04-03T07:42:57;29.30;10.70
52799;DHT22;38667;42.872;74.622;2023-04-03T07:45:23;29.20;10.50
52799;DHT22;38667;42.872;74.622;2023-04-03T07:47:49;29.30;10.30
52799;DHT22;38667;42.872;74.622;2023-04-03T07:50:18;29.20;9.90
52799;DHT22;38667;42.872;74.622;2023-04-03T07:52:44;29.10;10.10
52799;DHT22;38667;42.872;74.622;2023-04-03T07:55:11;28.80;10.40
52799;DHT22;38667;42.872;74.622;2023-04-03T07:57:37;28.40;10.70
52799;DHT22;38667;42.872;74.622;2023-04-03T08:00:05;27.90;10.40
52799;DHT22;38667;42.872;74.622;2023-04-03T08:02:31;27.80;11.30
52799;DHT22;38667;42.872;74.622;2023-04-03T08:04:58;27.80;10.80
52799;DHT22;38667;42.872;74.622;2023-04-03T08:07:26;28.20;10.80
52799;DHT22;38667;42.872;74.622;2023-04-03T08:09:52;28.70;9.70
52799;DHT22;38667;42.872;74.622;2023-04-03T08:12:18;29.20;10.20
52799;DHT22;38667;42.872;74.622;2023-04-03T08:14:45;29.20;11.10
52799;DHT22;38667;42.872;74.622;2023-04-03T08:17:11;29.20;10.30
52799;DHT22;38667;42.872;74.622;2023-04-03T08:19:38;29.40;10.10
52799;DHT22;38667;42.872;74.622;2023-04-03T08:22:04;29.00;10.30
52799;DHT22;38667;42.872;74.622;2023-04-03T08:24:32;28.50;11.20
52799;DHT22;38667;42.872;74.622;2023-04-03T08:26:59;28.30;10.60
52799;DHT22;38667;42.872;74.622;2023-04-03T08:29:26;28.10;10.40
52799;DHT22;38667;42.872;74.622;2023-04-03T08:31:52;27.90;10.40
52799;DHT22;38667;42.872;74.622;2023-04-03T08:34:19;27.70;10.00
52799;DHT22;38667;42.872;74.622;2023-04-03T08:36:46;28.20;10.00
52799;DHT22;38667;42.872;74.622;2023-04-03T08:39:13;29.50;9.70
52799;DHT22;38667;42.872;74.622;2023-04-03T08:41:42;30.50;9.80
52799;DHT22;38667;42.872;74.622;2023-04-03T08:44:15;31.20;9.60
52799;DHT22;38667;42.872;74.622;2023-04-03T08:46:53;31.40;9.70
52799;DHT22;38667;42.872;74.622;2023-04-03T08:49:26;31.60;10.00
52799;DHT22;38667;42.872;74.622;2023-04-03T08:51:54;31.60;9.40
52799;DHT22;38667;42.872;74.622;2023-04-03T08:54:27;32.00;10.20
52799;DHT22;38667;42.872;74.622;2023-04-03T08:56:55;32.40;10.20
52799;DHT22;38667;42.872;74.622;2023-04-03T08:59:27;33.00;10.20
52799;DHT22;38667;42.872;74.622;2023-04-03T09:01:54;33.20;10.30
52799;DHT22;38667;42.872;74.622;2023-04-03T09:04:22;32.80;9.30
52799;DHT22;38667;42.872;74.622;2023-04-03T09:06:51;33.00;10.20
52799;DHT22;38667;42.872;74.622;2023-04-03T09:09:30;32.90;9.30
52799;DHT22;38667;42.872;74.622;2023-04-03T09:12:03;32.40;9.20
52799;DHT22;38667;42.872;74.622;2023-04-03T09:14:35;32.80;9.90
52799;DHT22;38667;42.872;74.622;2023-04-03T09:17:06;33.30;10.10
52799;DHT22;38667;42.872;74.622;2023-04-03T09:19:41;33.00;9.60
52799;DHT22;38667;42.872;74.622;2023-04-03T09:22:16;32.70;9.60
52799;DHT22;38667;42.872;74.622;2023-04-03T09:24:44;32.10;10.50
52799;DHT22;38667;42.872;74.622;2023-04-03T09:27:13;32.30;9.40
52799;DHT22;38667;42.872;74.622;2023-04-03T09:29:41;32.80;9.90
52799;DHT22;38667;42.872;74.622;2023-04-03T09:32:18;33.10;9.30
52799;DHT22;38667;42.872;74.622;2023-04-03T09:34:46;33.70;9.70
52799;DHT22;38667;42.872;74.622;2023-04-03T09:37:34;34.10;10.20
52799;DHT22;38667;42.872;74.622;2023-04-03T09:40:01;33.90;9.40
52799;DHT22;38667;42.872;74.622;2023-04-03T09:42:30;33.50;9.80
52799;DHT22;38667;42.872;74.622;2023-04-03T09:44:59;34.10;9.20
52799;DHT22;38667;42.872;74.622;2023-04-03T09:47:27;33.40;9.40
52799;DHT22;38667;42.872;74.622;2023-04-03T09:50:19;31.70;9.20
52799;DHT22;38667;42.872;74.622;2023-04-03T09:52:47;30.50;11.00
52799;DHT22;38667;42.872;74.622;2023-04-03T09:55:15;30.40;9.80
52799;DHT22;38667;42.872;74.622;2023-04-03T09:57:44;30.30;9.90
52799;DHT22;38667;42.872;74.622;2023-04-03T10:00:22;29.70;9.50
52799;DHT22;38667;42.872;74.622;2023-04-03T10:02:51;29.40;9.80
52799;DHT22;38667;42.872;74.622;2023-04-03T10:05:33;29.00;10.60
52799;DHT22;38667;42.872;74.622;2023-04-03T10:08:14;28.40;11.80
52799;DHT22;38667;42.872;74.622;2023-04-03T10:10:47;28.00;11.10
52799;DHT22;38667;42.872;74.622;2023-04-03T10:13:18;27.60;10.10
52799;DHT22;38667;42.872;74.622;2023-04-03T10:15:48;27.40;10.90
52799;DHT22;38667;42.872;74.622;2023-04-03T10:18:29;27.20;11.50
52799;DHT22;38667;42.872;74.622;2023-04-03T10:21:02;26.90;10.10
52799;DHT22;38667;42.872;74.622;2023-04-03T10:23:36;26.70;10.50
52799;DHT22;38667;42.872;74.622;2023-04-03T10:26:09;26.80;10.50
52799;DHT22;38667;42.872;74.622;2023-04-03T10:28:45;27.80;10.10
52799;DHT22;38667;42.872;74.622;2023-04-03T10:31:19;28.50;10.20
52799;DHT22;38667;42.872;74.622;2023-04-03T10:33:59;28.60;10.50
52799;DHT22;38667;42.872;74.622;2023-04-03T10:36:37;28.70;10.70
52799;DHT22;38667;42.872;74.622;2023-04-03T10:39:14;27.80;9.60
52799;DHT22;38667;42.872;74.622;2023-04-03T10:41:57;26.90;10.80
52799;DHT22;38667;42.872;74.622;2023-04-03T10:44:34;26.50;10.80
52799;DHT22;38667;42.872;74.622;2023-04-03T10:47:05;26.20;10.40
52799;DHT22;38667;42.872;74.622;2023-04-03T10:49:45;26.10;10.50
52799;DHT22;38667;42.872;74.622;2023-04-03T10:52:22;25.90;10.00
52799;DHT22;38667;42.872;74.622;2023-04-03T10:54:58;25.80;11.30
52799;DHT22;38667;42.872;74.622;2023-04-03T10:57:29;25.60;9.70
52799;DHT22;38667;42.872;74.622;2023-04-03T10:59:59;25.50;10.80
52799;DHT22;38667;42.872;74.622;2023-04-03T11:02:29;25.40;12.80
52799;DHT22;38667;42.872;74.622;2023-04-03T11:05:00;25.40;11.60
52799;DHT22;38667;42.872;74.622;2023-04-03T11:07:29;25.50;11.00
52799;DHT22;38667;42.872;74.622;2023-04-03T11:10:00;25.50;10.50
52799;DHT22;38667;42.872;74.622;2023-04-03T11:12:34;25.40;11.50
52799;DHT22;38667;42.872;74.622;2023-04-03T11:15:05;25.30;11.30
52799;DHT22;38667;42.872;74.622;2023-04-03T11:17:35;25.30;11.40
52799;DHT22;38667;42.872;74.622;2023-04-03T11:20:08;25.10;10.80
52799;DHT22;38667;42.872;74.622;2023-04-03T11:22:41;24.90;11.20
52799;DHT22;38667;42.872;74.622;2023-04-03T11:25:16;24.90;10.70
52799;DHT22;38667;42.872;74.622;2023-04-03T11:27:46;24.90;10.60
52799;DHT22;38667;42.872;74.622;2023-04-03T11:30:19;24.80;10.30
52799;DHT22;38667;42.872;74.622;2023-04-03T11:33:17;24.80;10.10
52799;DHT22;38667;42.872;74.622;2023-04-03T11:35:48;24.70;10.00
52799;DHT22;38667;42.872;74.622;2023-04-03T11:38:21;24.60;10.10
52799;DHT22;38667;42.872;74.622;2023-04-03T11:40:49;24.50;10.80
52799;DHT22;38667;42.872;74.622;2023-04-03T11:43:23;24.40;10.60
52799;DHT22;38667;42.872;74.622;2023-04-03T11:45:54;24.30;12.20
52799;DHT22;38667;42.872;74.622;2023-04-03T11:48:46;24.30;10.40
52799;DHT22;38667;42.872;74.622;2023-04-03T11:51:38;24.40;11.60
52799;DHT22;38667;42.872;74.622;2023-04-03T11:54:36;24.30;11.10
52799;DHT22;38667;42.872;74.622;2023-04-03T12:00:48;24.10;10.30
52799;DHT22;38667;42.872;74.622;2023-04-03T12:09:31;24.10;11.50
52799;DHT22;38667;42.872;74.622;2023-04-03T12:12:38;24.00;10.60
52799;DHT22;38667;42.872;74.622;2023-04-03T12:15:38;23.90;11.60
52799;DHT22;38667;42.872;74.622;2023-04-03T12:18:39;23.80;10.30
52799;DHT22;38667;42.872;74.622;2023-04-03T12:21:06;23.70;10.70
52799;DHT22;38667;42.872;74.622;2023-04-03T12:23:33;23.60;10.30
52799;DHT22;38667;42.872;74.622;2023-04-03T12:26:06;23.60;10.60
52799;DHT22;38667;42.872;74.622;2023-04-03T12:28:46;23.60;10.70
52799;DHT22;38667;42.872;74.622;2023-04-03T12:31:12;23.40;9.80
52799;DHT22;38667;42.872;74.622;2023-04-03T12:36:40;23.30;10.20
52799;DHT22;38667;42.872;74.622;2023-04-03T12:39:33;23.20;9.90
52799;DHT22;38667;42.872;74.622;2023-04-03T12:42:10;23.00;10.00
52799;DHT22;38667;42.872;74.622;2023-04-03T12:44:54;22.90;10.50
52799;DHT22;38667;42.872;74.622;2023-04-03T12:47:28;22.80;9.60
52799;DHT22;38667;42.872;74.622;2023-04-03T12:49:55;22.70;10.00
52799;DHT22;38667;42.872;74.622;2023-04-03T12:52:32;22.50;10.00
52799;DHT22;38667;42.872;74.622;2023-04-03T12:55:00;22.40;10.30
52799;DHT22;38667;42.872;74.622;2023-04-03T12:57:35;22.40;10.40
52799;DHT22;38667;42.872;74.622;2023-04-03T13:00:20;22.20;10.50
52799;DHT22;38667;42.872;74.622;2023-04-03T13:02:46;22.10;10.00
52799;DHT22;38667;42.872;74.622;2023-04-03T13:05:16;21.90;10.50
52799;DHT22;38667;42.872;74.622;2023-04-03T13:07:44;21.90;9.20
52799;DHT22;38667;42.872;74.622;2023-04-03T13:10:15;21.80;9.90
52799;DHT22;38667;42.872;74.622;2023-04-03T13:12:53;21.70;10.80
52799;DHT22;38667;42.872;74.622;2023-04-03T13:15:22;21.60;10.50
52799;DHT22;38667;42.872;74.622;2023-04-03T13:17:49;21.60;9.70
52799;DHT22;38667;42.872;74.622;2023-04-03T13:20:20;21.50;9.70
52799;DHT22;38667;42.872;74.622;2023-04-03T13:22:51;21.50;10.00
52799;DHT22;38667;42.872;74.622;2023-04-03T13:25:20;21.40;9.50
52799;DHT22;38667;42.872;74.622;2023-04-03T13:27:47;21.30;10.10
52799;DHT22;38667;42.872;74.622;2023-04-03T13:30:24;21.20;9.50
52799;DHT22;38667;42.872;74.622;2023-04-03T13:32:51;21.20;10.90
52799;DHT22;38667;42.872;74.622;2023-04-03T13:35:29;21.00;10.80
52799;DHT22;38667;42.872;74.622;2023-04-03T13:37:58;20.90;11.00
52799;DHT22;38667;42.872;74.622;2023-04-03T13:40:25;20.90;10.30
52799;DHT22;38667;42.872;74.622;2023-04-03T13:43:00;20.70;10.50
52799;DHT22;38667;42.872;74.622;2023-04-03T13:45:29;20.60;10.30
52799;DHT22;38667;42.872;74.622;2023-04-03T13:48:09;20.50;11.00
52799;DHT22;38667;42.872;74.622;2023-04-03T13:50:51;20.40;10.20
52799;DHT22;38667;42.872;74.622;2023-04-03T13:53:18;20.30;10.70
52799;DHT22;38667;42.872;74.622;2023-04-03T13:55:56;20.20;10.90
52799;DHT22;38667;42.872;74.622;2023-04-03T13:58:24;20.10;11.40
52799;DHT22;38667;42.872;74.622;2023-04-03T14:00:54;19.90;11.00
52799;DHT22;38667;42.872;74.622;2023-04-03T14:03:23;19.90;11.20
52799;DHT22;38667;42.872;74.622;2023-04-03T14:05:49;19.80;11.40
52799;DHT22;38667;42.872;74.622;2023-04-03T14:08:16;19.70;11.60
52799;DHT22;38667;42.872;74.622;2023-04-03T14:10:42;19.60;12.00
52799;DHT22;38667;42.872;74.622;2023-04-03T14:13:11;19.50;12.10
52799;DHT22;38667;42.872;74.622;2023-04-03T14:15:37;19.40;12.30
52799;DHT22;38667;42.872;74.622;2023-04-03T14:18:05;19.30;12.20
52799;DHT22;38667;42.872;74.622;2023-04-03T14:20:32;19.20;12.50
52799;DHT22;38667;42.872;74.622;2023-04-03T14:22:58;19.10;12.60
52799;DHT22;38667;42.872;74.622;2023-04-03T14:25:24;18.90;12.70
52799;DHT22;38667;42.872;74.622;2023-04-03T14:27:52;18.90;13.20
52799;DHT22;38667;42.872;74.622;2023-04-03T14:30:20;18.70;13.30
52799;DHT22;38667;42.872;74.622;2023-04-03T14:32:47;18.60;13.50
52799;DHT22;38667;42.872;74.622;2023-04-03T14:35:15;18.50;13.30
52799;DHT22;38667;42.872;74.622;2023-04-03T14:37:42;18.50;12.80
52799;DHT22;38667;42.872;74.622;2023-04-03T14:40:11;18.50;12.90
52799;DHT22;38667;42.872;74.622;2023-04-03T14:42:38;18.40;13.10
52799;DHT22;38667;42.872;74.622;2023-04-03T14:45:09;18.30;13.30
52799;DHT22;38667;42.872;74.622;2023-04-03T14:47:39;18.20;14.30
52799;DHT22;38667;42.872;74.622;2023-04-03T14:50:11;18.20;12.70
52799;DHT22;38667;42.872;74.622;2023-04-03T14:52:39;18.20;13.10
52799;DHT22;38667;42.872;74.622;2023-04-03T14:55:06;18.20;12.90
52799;DHT22;38667;42.872;74.622;2023-04-03T14:57:33;18.20;13.70
52799;DHT22;38667;42.872;74.622;2023-04-03T15:00:00;18.00;14.30
52799;DHT22;38667;42.872;74.622;2023-04-03T15:02:28;18.00;14.00
52799;DHT22;38667;42.872;74.622;2023-04-03T15:04:55;17.90;13.90
52799;DHT22;38667;42.872;74.622;2023-04-03T15:07:22;17.90;14.30
52799;DHT22;38667;42.872;74.622;2023-04-03T15:09:51;17.80;13.60
52799;DHT22;38667;42.872;74.622;2023-04-03T15:12:17;17.80;13.70
52799;DHT22;38667;42.872;74.622;2023-04-03T15:14:44;17.80;15.30
52799;DHT22;38667;42.872;74.622;2023-04-03T15:17:15;17.60;15.00
52799;DHT22;38667;42.872;74.622;2023-04-03T15:19:43;17.60;14.70
52799;DHT22;38667;42.872;74.622;2023-04-03T15:22:13;17.50;15.10
52799;DHT22;38667;42.872;74.622;2023-04-03T15:24:39;17.40;14.90
52799;DHT22;38667;42.872;74.622;2023-04-03T15:27:08;17.40;15.00
52799;DHT22;38667;42.872;74.622;2023-04-03T15:29:34;17.30;14.50
52799;DHT22;38667;42.872;74.622;2023-04-03T15:32:01;17.20;14.60
52799;DHT22;38667;42.872;74.622;2023-04-03T15:34:28;17.10;15.20
52799;DHT22;38667;42.872;74.622;2023-04-03T15:36:54;17.10;14.40
52799;DHT22;38667;42.872;74.622;2023-04-03T15:39:20;16.90;15.80
52799;DHT22;38667;42.872;74.622;2023-04-03T15:41:47;16.80;16.00
52799;DHT22;38667;42.872;74.622;2023-04-03T15:44:15;16.60;16.10
52799;DHT22;38667;42.872;74.622;2023-04-03T15:46:41;16.50;15.80
52799;DHT22;38667;42.872;74.622;2023-04-03T15:49:08;16.40;16.10